aviador You're here:

LWSK Decoded Metar

SKOPJE in FORMER MACEDONIA
Report Time2017-08-23 04:00:00
UTC Time2017-08-23 04:16:22
Flight Rules vfr VFR
Wind150° at 02 kt
W.Decomp.*RWY 16: 2.0 kt HW 0.4 kt LCW
W.Rank150° ranks 6
Current wind is below 150° avg. (4.3)
Visibility9999 m
Phenomena:N/A
Clouds:N/A
Expected CloudBase > 1,200 ft AGL from Temp-Dew spread
CeilingNone
Temp09°C (ISA -4)
Dew Point06°C (82% RH)
AAT7.4°C
QNH1019 hPa
Density Alt180 ft
Elevation784 ft
Report Wrong Elevation
Raw Report
LWSK 230400Z 15002KT CAVOK 09/06 Q1019 NOSIG=

Extra information for LWSK:More info

Metar Taf Metar & Taf Last 4 Metars F.Rules Stats Wind Profile Meteogram Temp Stats Airport Information Weather charts Add Link Nearby VenuesMetar ALERT Operation Metar Decoded Social comments

Airport Page